Individual YR Submissions

/Individual YR Submissions

Individual YR Submissions



Showing results for Mary Hall
Year Rounder submissions are verified and standings are posted monthly. Questions? Contact the Year Rounder team.
2016 Submissions
(Rides that have a "Y" in the standings column are included in the current standings. Verified rides not in the current standings will be included next time.)

Standings were last generated on
2017-01-10 15:17:05.
# event date event name distance (unit) elevation (unit) ride type bike type verified standings
12016-01-12McKinney loop century101.80 miles2356 feetpersonalstandard2016-01-14YY
22016-01-15OK is OK 210k perm131.20 miles2776 feetpersonalstandard2016-01-15YY
32016-01-17WRL & south loop w/ Roadies108.70 miles2474 feetpersonalstandard2016-01-17YY
42016-01-26One too many cookies on the cruise century WRL101.00 miles1608 feetpersonalstandard2016-01-27YY
52016-01-295 hr TT and 1Hr w/ Kevin D100.40 miles1562 feetpersonalstandard2016-01-30YY
62016-01-30OAS Lite +commute century106.10 miles2018 feetpersonalstandard2016-01-30YY
72016-02-03WRL Century ended with a pub crawlers Christmas light ride on ta101.30 miles1663 feetpersonalstandard2016-02-03YY
82016-02-13Bike Sebring 24 Hours312.80 miles2600 feetorganizedstandard2016-02-18YY
92016-02-19Red Bandana 200k permanent127.70 miles4252 feetpersonalstandard2016-02-20YY
102016-02-218:30 South loop tandem/ WRL solo111.70 miles2090 feetpersonalstandard2016-02-21YY
112016-02-26Training day TT151.10 miles2087 feetpersonalstandard2016-02-26YY
122016-03-04Solo century WRL100.50 miles1503 feetpersonalstandard2016-03-05YY
132016-03-05OAS Long to Blue Ridge + commute145.00 miles3881 feetpersonalstandard2016-03-05YY
142016-03-12LSR OK is Ok 400k brevet249.50 miles6512 feetorganizedstandard2016-03-13YY
152016-03-19Rough Ride...OAS longish100.70 miles2290 feetpersonalstandard2016-03-19YY
162016-03-21Wheel in the sky keeps on turning100.60 miles1752 feetpersonalstandard2016-03-22YY
172016-04-01That's How it Goes When You're Movin' in the Dark100.70 miles1440 feetpersonalstandard2016-04-03YY
182016-04-03That's Why They Call me Bad Company... I Can't Deny101.20 miles1716 feetpersonalstandard2016-04-03YY
192016-04-08Bessie's Creek 24 hr TT297.20 miles1824 feetorganizedstandard2016-04-13YY
202016-04-15Jailhouse 217k permanent135.20 miles3996 feetpersonalstandard2016-04-16YY
212016-04-16Have you ever hitched a free ride on a train? I did on DB1105.20 miles2041 feetpersonalstandard2016-04-16YY
222016-04-19Roll, wont you come roll with me slow, fast, full speed100.30 miles1460 feetpersonalstandard2016-04-20YY
232016-04-22Friday field trip Sunnyvale, Deep Ellum, Earth Day (Fair Park)100.10 miles2487 feetpersonalstandard2016-04-23YY
242016-04-26I found myself seeking shelter against the wind102.90 miles1601 feetpersonalstandard2016-04-27YY
252016-04-29Texas Ultra Spirit 24 hr Tt289.30 miles11926 feetorganizedstandard2016-05-03YY
262016-05-08Majorca Adventure Day 2 Group 2100.10 miles3996 feetpersonalstandard2016-05-08YY
272016-05-12Legro's Challenge196.60 miles12530 feetorganizedstandard2016-05-14YY
282016-05-17If your train's on time, you can get to work by 9...100.10 miles1539 feetpersonalstandard2016-05-18YY
292016-05-23Waitin', waitin on a sunny day... Gonna chase the clouds away...101.90 miles1637 feetpersonalstandard2016-05-27YY
302016-05-25Lookin out at the road rushing under my wheels... I don't know h101.20 miles1348 feetpersonalstandard2016-05-27YY
312016-05-28LSR Italy 308k Brevet192.20 miles4583 feetorganizedstandard2016-05-29YY
322016-06-0424 Hours in the Canyon (24 hr solo TT)335.00 miles9974 feetorganizedstandard2016-06-07YY
332016-06-10On a long and lonesome highway east of Omaha You can listen to t101.10 miles1558 feetpersonalstandard2016-06-11YY
342016-06-20Your Thoughts will soon be wandering the way they always do...wh114.50 miles1991 feetpersonalstandard2016-06-21YY
352016-06-24Winnsboro Wanderer 200k permanent126.10 miles2700 feetorganizedstandard2016-06-24YY
362016-06-29You know the day destroys the night, Night divides the day...bre100.20 miles1857 feetpersonalstandard2016-06-30YY
372016-07-05Vail Pass Volley 206k permanent129.80 miles6407 feetpersonalstandard2016-07-06YY
382016-07-18 I got my ticket for the long way round, the one with the pretti100.50 miles1480 feetpersonalstandard2016-07-19YY
392016-07-25In the middle of the road, You see the darnedest things..100.30 miles1496 feetpersonalstandard2016-07-25YY
402016-07-27Ad Hoc Wed night ride + commute100.70 miles1860 feetpersonalstandard2016-07-28YY
412016-07-30OAS lite to DFW + commute117.40 miles2510 feetpersonalstandard2016-07-30YY
422016-08-05We'll forget the sun in his jealous sky as we lie in fields of g106.30 miles1430 feetpersonalstandard2016-08-05YY
432016-08-09The choice is up to you cause they come in two classes..rhinesto100.50 miles1440 feetpersonalstandard2016-08-10YY
442016-08-12Itasca Disasta 207k permanent130.20 miles3455 feetpersonalstandard2016-08-13YY
452016-08-20Midatlantic 12/24 TT281.30 miles1470 feetorganizedstandard2016-08-25YY
462016-08-26Big storm rising out of the east You can cage that tiger, but yo100.70 miles1483 feetpersonalstandard2016-08-26YY
472016-08-29Caught in a storm, waited it out, restarted, gnats for dinner90.50 miles1283 feetpersonalstandard2016-08-30YY
482016-08-31The 6:05 ++90.60 miles1788 feetpersonalstandard2016-08-31YY
492016-09-02Every Ounce of Energy you try to give away, As the Sweat Pours o100.20 miles1457 feetpersonalstandard2016-09-02YY
502016-09-03Spanish Fort 209k permanent130.50 miles5272 feetpersonalstandard2016-09-03YY
512016-09-07The 6:05 ++90.30 miles1844 feetpersonalstandard2016-09-07YY
522016-09-16Cause uptown funk gonna give it to you....Don't believe me just 112.40 miles1447 feetpersonalstandard2016-09-17YY
532016-09-23Texas Time Trials 24 hr TT343.40 miles15873 feetorganizedstandard2016-09-25YY
542016-10-01PBA DB1 + commute103.10 miles2490 feetpersonalstandard2016-10-01YY
552016-10-15NCOM beat down240.00 miles12054 feetorganizedstandard2016-10-17YY
562016-10-21BS200k permanent126.70 miles3212 feetpersonalstandard2016-10-21YY
572016-10-31Halloween ride105.20 miles1519 feetpersonalstandard2016-11-02YY
582016-11-01Morning Ride101.40 miles1463 feetpersonalstandard2016-11-02YY
592016-11-02Afternoon Ride90.50 miles1132 feetpersonalstandard2016-11-02YY
602016-11-05PBA Fast 40 + commute100.80 miles2192 feetpersonalstandard2016-11-05YY
612016-11-10Puttin' on the Styx 200k Permanent125.90 miles2822 feetpersonalstandard2016-11-10YY
622016-11-12PBA DB1 to Princeton + commute104.50 miles2654 feetpersonalstandard2016-11-13YY
632016-11-16Nobody said it was easy, Nobody said it would be this hard...I'm90.70 miles1207 feetpersonalstandard2016-11-16YY
642016-11-26PBA DB1 ++/ 14,000 mile ride112.20 miles2644 feetpersonalstandard2016-11-26YY
652016-12-02Big Wheels Keep on Turnin ', Proud Mary Keep on Burnin ', Rollin135.80 miles2028 feetpersonalstandard2016-12-03YY
662016-12-10RUSA La Bella Rani 211k Brevet w/ the Lonestar Randonneurs131.40 miles3465 feetorganizedstandard2016-12-10YY
672016-12-17PBA OAS long + commute149.60 miles3392 feetpersonalstandard2016-12-17YY
682016-12-26BBQ Boogie 224k permanent w/ LSR148.20 miles3753 feetpersonalstandard2016-12-26YY